<?xml version="1.0" encoding="UTF-8" standalone="no" ?>
<gpx xmlns="http://www.topografix.com/GPX/1/1" xmlns:xsi="http://www.w3.org/2001/XMLSchema-instance" xsi:schemaLocation="http://www.topografix.com/GPX/1/1 http://www.topografix.com/GPX/1/1/gpx.xsd" version="1.1" creator="VisuGPX - https://www.visugpx.com">
  <metadata>
    <name>tracé de Saint Gilles à Gallargues le Montueux / ...</name>
    <desc><![CDATA[CHEMIN DE ST JACQUES DE COMPOSTELLE, LA VOIE d'ARLES et de TOULOUSE]]></desc>
  </metadata>
  <trk>
    <name><![CDATA[Roma Santiago - T49 Saint Gilles - Gallargues le Montueux / ... - Wikiloc]]></name>
    <trkseg>
      <trkpt lat="43.67666" lon="4.43131">
        <ele>10.679</ele>
        <time>2023-04-13T07:25:23Z</time>
      </trkpt>
      <trkpt lat="43.6766" lon="4.43097">
        <ele>4.405</ele>
        <time>2023-04-13T07:25:45Z</time>
      </trkpt>
      <trkpt lat="43.67682" lon="4.43037">
        <ele>11.325</ele>
        <time>2023-04-13T07:26:39Z</time>
      </trkpt>
      <trkpt lat="43.67708" lon="4.43025">
        <ele>3.009</ele>
        <time>2023-04-13T07:27:08Z</time>
      </trkpt>
      <trkpt lat="43.677" lon="4.42876">
        <ele>0.338</ele>
        <time>2023-04-13T07:29:06Z</time>
      </trkpt>
      <trkpt lat="43.67543" lon="4.42551">
        <ele>7.86</ele>
        <time>2023-04-13T07:33:00Z</time>
      </trkpt>
      <trkpt lat="43.67462" lon="4.42485">
        <ele>9.818</ele>
        <time>2023-04-13T07:34:16Z</time>
      </trkpt>
      <trkpt lat="43.67422" lon="4.42473">
        <ele>9.051</ele>
        <time>2023-04-13T07:34:50Z</time>
      </trkpt>
      <trkpt lat="43.673" lon="4.42387">
        <ele>7.416</ele>
        <time>2023-04-13T07:36:40Z</time>
      </trkpt>
      <trkpt lat="43.66978" lon="4.42215">
        <ele>8.374</ele>
        <time>2023-04-13T07:41:30Z</time>
      </trkpt>
      <trkpt lat="43.66936" lon="4.4188">
        <ele>6.289</ele>
        <time>2023-04-13T07:44:48Z</time>
      </trkpt>
      <trkpt lat="43.66885" lon="4.41742">
        <ele>4.965</ele>
        <time>2023-04-13T07:46:22Z</time>
      </trkpt>
      <trkpt lat="43.66845" lon="4.41535">
        <ele>1.015</ele>
        <time>2023-04-13T07:48:29Z</time>
      </trkpt>
      <trkpt lat="43.6678" lon="4.41367">
        <ele>2.254</ele>
        <time>2023-04-13T07:50:15Z</time>
      </trkpt>
      <trkpt lat="43.66641" lon="4.40648">
        <ele>0.856</ele>
        <time>2023-04-13T07:57:13Z</time>
      </trkpt>
      <trkpt lat="43.66606" lon="4.40534">
        <ele>-3.511</ele>
        <time>2023-04-13T07:58:25Z</time>
      </trkpt>
      <trkpt lat="43.66547" lon="4.40222">
        <ele>-1.609</ele>
        <time>2023-04-13T08:01:19Z</time>
      </trkpt>
      <trkpt lat="43.66524" lon="4.39912">
        <ele>-1.316</ele>
        <time>2023-04-13T08:04:10Z</time>
      </trkpt>
      <trkpt lat="43.66443" lon="4.39482">
        <ele>-3.038</ele>
        <time>2023-04-13T08:08:13Z</time>
      </trkpt>
      <trkpt lat="43.66431" lon="4.39472">
        <ele>-3.616</ele>
        <time>2023-04-13T08:08:25Z</time>
      </trkpt>
      <trkpt lat="43.66402" lon="4.39486">
        <ele>-4.539</ele>
        <time>2023-04-13T08:08:49Z</time>
      </trkpt>
      <trkpt lat="43.66381" lon="4.39466">
        <ele>-4.524</ele>
        <time>2023-04-13T08:09:09Z</time>
      </trkpt>
      <trkpt lat="43.66344" lon="4.39192">
        <ele>-10.722</ele>
        <time>2023-04-13T08:12:01Z</time>
      </trkpt>
      <trkpt lat="43.66301" lon="4.39104">
        <ele>-9.567</ele>
        <time>2023-04-13T08:12:56Z</time>
      </trkpt>
      <trkpt lat="43.66038" lon="4.3888">
        <ele>-4.993</ele>
        <time>2023-04-13T08:17:44Z</time>
      </trkpt>
      <trkpt lat="43.66078" lon="4.38625">
        <ele>0.943</ele>
        <time>2023-04-13T08:20:27Z</time>
      </trkpt>
      <trkpt lat="43.6615" lon="4.38553">
        <ele>-0.975</ele>
        <time>2023-04-13T08:21:44Z</time>
      </trkpt>
      <trkpt lat="43.66421" lon="4.38436">
        <ele>1.928</ele>
        <time>2023-04-13T08:25:25Z</time>
      </trkpt>
      <trkpt lat="43.6646" lon="4.38405">
        <ele>0.02</ele>
        <time>2023-04-13T08:25:59Z</time>
      </trkpt>
      <trkpt lat="43.66471" lon="4.3836">
        <ele>0.309</ele>
        <time>2023-04-13T08:26:27Z</time>
      </trkpt>
      <trkpt lat="43.66508" lon="4.38337">
        <ele>-1.178</ele>
        <time>2023-04-13T08:26:59Z</time>
      </trkpt>
      <trkpt lat="43.66497" lon="4.38183">
        <ele>-2.23</ele>
        <time>2023-04-13T08:28:26Z</time>
      </trkpt>
      <trkpt lat="43.66518" lon="4.38149">
        <ele>-0.418</ele>
        <time>2023-04-13T08:28:53Z</time>
      </trkpt>
      <trkpt lat="43.66509" lon="4.38076">
        <ele>3.311</ele>
        <time>2023-04-13T08:29:33Z</time>
      </trkpt>
      <trkpt lat="43.66543" lon="4.3818">
        <ele>2.496</ele>
        <time>2023-04-13T08:30:38Z</time>
      </trkpt>
      <trkpt lat="43.666" lon="4.38213">
        <ele>3.884</ele>
        <time>2023-04-13T08:31:31Z</time>
      </trkpt>
      <trkpt lat="43.66721" lon="4.38238">
        <ele>1.519</ele>
        <time>2023-04-13T08:33:06Z</time>
      </trkpt>
      <trkpt lat="43.66794" lon="4.38274">
        <ele>5.525</ele>
        <time>2023-04-13T08:34:13Z</time>
      </trkpt>
      <trkpt lat="43.66978" lon="4.38329">
        <ele>3.525</ele>
        <time>2023-04-13T08:36:53Z</time>
      </trkpt>
      <trkpt lat="43.67034" lon="4.38335">
        <ele>0.682</ele>
        <time>2023-04-13T08:37:37Z</time>
      </trkpt>
      <trkpt lat="43.67106" lon="4.38297">
        <ele>3.343</ele>
        <time>2023-04-13T08:38:36Z</time>
      </trkpt>
      <trkpt lat="43.67194" lon="4.38166">
        <ele>5.517</ele>
        <time>2023-04-13T08:40:11Z</time>
      </trkpt>
      <trkpt lat="43.67269" lon="4.38018">
        <ele>3.509</ele>
        <time>2023-04-13T08:42:20Z</time>
      </trkpt>
      <trkpt lat="43.67337" lon="4.37691">
        <ele>11.579</ele>
        <time>2023-04-13T08:45:34Z</time>
      </trkpt>
      <trkpt lat="43.67461" lon="4.37329">
        <ele>10.191</ele>
        <time>2023-04-13T08:49:23Z</time>
      </trkpt>
      <trkpt lat="43.6752" lon="4.37121">
        <ele>14.449</ele>
        <time>2023-04-13T08:51:41Z</time>
      </trkpt>
      <trkpt lat="43.67549" lon="4.36957">
        <ele>20.912</ele>
        <time>2023-04-13T08:54:00Z</time>
      </trkpt>
      <trkpt lat="43.67452" lon="4.36863">
        <ele>16.727</ele>
        <time>2023-04-13T08:56:02Z</time>
      </trkpt>
      <trkpt lat="43.67325" lon="4.36559">
        <ele>16.975</ele>
        <time>2023-04-13T08:59:32Z</time>
      </trkpt>
      <trkpt lat="43.67245" lon="4.36502">
        <ele>15.93</ele>
        <time>2023-04-13T09:00:42Z</time>
      </trkpt>
      <trkpt lat="43.67225" lon="4.36362">
        <ele>22.026</ele>
        <time>2023-04-13T09:01:59Z</time>
      </trkpt>
      <trkpt lat="43.67165" lon="4.36273">
        <ele>16.926</ele>
        <time>2023-04-13T09:03:10Z</time>
      </trkpt>
      <trkpt lat="43.66094" lon="4.34949">
        <ele>13.934</ele>
        <time>2023-04-13T09:22:09Z</time>
      </trkpt>
      <trkpt lat="43.66046" lon="4.34784">
        <ele>16.855</ele>
        <time>2023-04-13T09:24:18Z</time>
      </trkpt>
      <trkpt lat="43.65954" lon="4.34324">
        <ele>17.11</ele>
        <time>2023-04-13T09:29:02Z</time>
      </trkpt>
      <trkpt lat="43.65907" lon="4.34213">
        <ele>21.809</ele>
        <time>2023-04-13T09:35:10Z</time>
      </trkpt>
      <trkpt lat="43.65803" lon="4.34076">
        <ele>21.224</ele>
        <time>2023-04-13T09:38:43Z</time>
      </trkpt>
      <trkpt lat="43.65764" lon="4.33972">
        <ele>16.586</ele>
        <time>2023-04-13T09:39:55Z</time>
      </trkpt>
      <trkpt lat="43.65742" lon="4.33869">
        <ele>21.314</ele>
        <time>2023-04-13T09:40:56Z</time>
      </trkpt>
      <trkpt lat="43.65722" lon="4.33565">
        <ele>18.067</ele>
        <time>2023-04-13T09:43:55Z</time>
      </trkpt>
      <trkpt lat="43.65759" lon="4.3356">
        <ele>21.652</ele>
        <time>2023-04-13T09:45:41Z</time>
      </trkpt>
      <trkpt lat="43.65766" lon="4.33691">
        <ele>17.03</ele>
        <time>2023-04-13T09:47:05Z</time>
      </trkpt>
      <trkpt lat="43.65786" lon="4.33702">
        <ele>18.215</ele>
        <time>2023-04-13T09:47:26Z</time>
      </trkpt>
      <trkpt lat="43.65921" lon="4.33559">
        <ele>15.951</ele>
        <time>2023-04-13T09:49:58Z</time>
      </trkpt>
      <trkpt lat="43.66262" lon="4.33327">
        <ele>20.421</ele>
        <time>2023-04-13T09:55:20Z</time>
      </trkpt>
      <trkpt lat="43.66233" lon="4.32996">
        <ele>32.558</ele>
        <time>2023-04-13T09:58:58Z</time>
      </trkpt>
      <trkpt lat="43.66309" lon="4.32803">
        <ele>46.452</ele>
        <time>2023-04-13T10:01:21Z</time>
      </trkpt>
      <trkpt lat="43.66313" lon="4.32811">
        <ele>50.317</ele>
        <time>2023-04-13T10:24:34Z</time>
      </trkpt>
      <trkpt lat="43.66343" lon="4.32659">
        <ele>37.909</ele>
        <time>2023-04-13T10:30:03Z</time>
      </trkpt>
      <trkpt lat="43.66314" lon="4.32354">
        <ele>42.936</ele>
        <time>2023-04-13T10:32:59Z</time>
      </trkpt>
      <trkpt lat="43.6631" lon="4.32158">
        <ele>42.148</ele>
        <time>2023-04-13T10:34:54Z</time>
      </trkpt>
      <trkpt lat="43.66331" lon="4.32051">
        <ele>30.856</ele>
        <time>2023-04-13T10:35:57Z</time>
      </trkpt>
      <trkpt lat="43.66353" lon="4.32023">
        <ele>27.979</ele>
        <time>2023-04-13T10:36:20Z</time>
      </trkpt>
      <trkpt lat="43.66345" lon="4.31973">
        <ele>27.014</ele>
        <time>2023-04-13T10:36:52Z</time>
      </trkpt>
      <trkpt lat="43.6645" lon="4.3203">
        <ele>31.572</ele>
        <time>2023-04-13T10:38:31Z</time>
      </trkpt>
      <trkpt lat="43.66602" lon="4.32134">
        <ele>37.687</ele>
        <time>2023-04-13T10:40:43Z</time>
      </trkpt>
      <trkpt lat="43.66644" lon="4.32178">
        <ele>35.363</ele>
        <time>2023-04-13T10:41:27Z</time>
      </trkpt>
      <trkpt lat="43.66665" lon="4.32182">
        <ele>35.753</ele>
        <time>2023-04-13T10:41:45Z</time>
      </trkpt>
      <trkpt lat="43.6686" lon="4.32045">
        <ele>46.496</ele>
        <time>2023-04-13T10:44:49Z</time>
      </trkpt>
      <trkpt lat="43.66933" lon="4.31977">
        <ele>51.731</ele>
        <time>2023-04-13T10:47:01Z</time>
      </trkpt>
      <trkpt lat="43.67021" lon="4.31939">
        <ele>59.024</ele>
        <time>2023-04-13T10:48:19Z</time>
      </trkpt>
      <trkpt lat="43.67075" lon="4.31844">
        <ele>66.709</ele>
        <time>2023-04-13T10:49:34Z</time>
      </trkpt>
      <trkpt lat="43.67219" lon="4.31662">
        <ele>69.57</ele>
        <time>2023-04-13T10:52:17Z</time>
      </trkpt>
      <trkpt lat="43.67267" lon="4.31572">
        <ele>74.712</ele>
        <time>2023-04-13T10:53:58Z</time>
      </trkpt>
      <trkpt lat="43.6732" lon="4.31519">
        <ele>78.43</ele>
        <time>2023-04-13T10:54:52Z</time>
      </trkpt>
      <trkpt lat="43.67435" lon="4.31306">
        <ele>74.273</ele>
        <time>2023-04-13T10:57:24Z</time>
      </trkpt>
      <trkpt lat="43.67589" lon="4.31408">
        <ele>74.618</ele>
        <time>2023-04-13T10:59:41Z</time>
      </trkpt>
      <trkpt lat="43.67659" lon="4.31218">
        <ele>72.416</ele>
        <time>2023-04-13T11:02:03Z</time>
      </trkpt>
      <trkpt lat="43.67736" lon="4.3113">
        <ele>76.681</ele>
        <time>2023-04-13T11:03:29Z</time>
      </trkpt>
      <trkpt lat="43.67785" lon="4.30976">
        <ele>76.577</ele>
        <time>2023-04-13T11:05:05Z</time>
      </trkpt>
      <trkpt lat="43.67883" lon="4.30842">
        <ele>82.037</ele>
        <time>2023-04-13T11:06:58Z</time>
      </trkpt>
      <trkpt lat="43.6796" lon="4.30684">
        <ele>70.739</ele>
        <time>2023-04-13T11:08:38Z</time>
      </trkpt>
      <trkpt lat="43.6801" lon="4.30614">
        <ele>60.501</ele>
        <time>2023-04-13T11:09:36Z</time>
      </trkpt>
      <trkpt lat="43.68145" lon="4.3051">
        <ele>62.221</ele>
        <time>2023-04-13T11:12:20Z</time>
      </trkpt>
      <trkpt lat="43.68214" lon="4.3031">
        <ele>66.509</ele>
        <time>2023-04-13T11:14:34Z</time>
      </trkpt>
      <trkpt lat="43.68292" lon="4.30279">
        <ele>63.144</ele>
        <time>2023-04-13T11:15:38Z</time>
      </trkpt>
      <trkpt lat="43.68293" lon="4.30231">
        <ele>57.046</ele>
        <time>2023-04-13T11:16:06Z</time>
      </trkpt>
      <trkpt lat="43.6825" lon="4.30121">
        <ele>49.964</ele>
        <time>2023-04-13T11:17:17Z</time>
      </trkpt>
      <trkpt lat="43.68334" lon="4.29904">
        <ele>58.017</ele>
        <time>2023-04-13T11:19:25Z</time>
      </trkpt>
      <trkpt lat="43.68388" lon="4.29859">
        <ele>62.062</ele>
        <time>2023-04-13T11:20:32Z</time>
      </trkpt>
      <trkpt lat="43.6842" lon="4.29808">
        <ele>72.84</ele>
        <time>2023-04-13T11:21:15Z</time>
      </trkpt>
      <trkpt lat="43.68512" lon="4.29624">
        <ele>77.155</ele>
        <time>2023-04-13T11:24:14Z</time>
      </trkpt>
      <trkpt lat="43.68554" lon="4.29478">
        <ele>75.441</ele>
        <time>2023-04-13T11:34:15Z</time>
      </trkpt>
      <trkpt lat="43.68554" lon="4.29414">
        <ele>80.771</ele>
        <time>2023-04-13T11:42:28Z</time>
      </trkpt>
      <trkpt lat="43.68676" lon="4.29048">
        <ele>78.312</ele>
        <time>2023-04-13T11:48:32Z</time>
      </trkpt>
      <trkpt lat="43.68692" lon="4.28927">
        <ele>75.332</ele>
        <time>2023-04-13T11:49:40Z</time>
      </trkpt>
      <trkpt lat="43.68842" lon="4.2868">
        <ele>77.005</ele>
        <time>2023-04-13T11:52:36Z</time>
      </trkpt>
      <trkpt lat="43.68865" lon="4.28621">
        <ele>78.909</ele>
        <time>2023-04-13T11:53:11Z</time>
      </trkpt>
      <trkpt lat="43.68937" lon="4.28372">
        <ele>73.112</ele>
        <time>2023-04-13T11:55:48Z</time>
      </trkpt>
      <trkpt lat="43.68927" lon="4.28357">
        <ele>71.214</ele>
        <time>2023-04-13T11:57:09Z</time>
      </trkpt>
      <trkpt lat="43.68937" lon="4.28129">
        <ele>56.032</ele>
        <time>2023-04-13T11:59:13Z</time>
      </trkpt>
      <trkpt lat="43.68984" lon="4.27992">
        <ele>53.585</ele>
        <time>2023-04-13T12:00:38Z</time>
      </trkpt>
      <trkpt lat="43.69046" lon="4.27933">
        <ele>60.96</ele>
        <time>2023-04-13T12:01:33Z</time>
      </trkpt>
      <trkpt lat="43.69183" lon="4.27918">
        <ele>49.248</ele>
        <time>2023-04-13T12:03:19Z</time>
      </trkpt>
      <trkpt lat="43.69202" lon="4.279">
        <ele>50.783</ele>
        <time>2023-04-13T12:03:42Z</time>
      </trkpt>
      <trkpt lat="43.69215" lon="4.27768">
        <ele>41.729</ele>
        <time>2023-04-13T12:05:21Z</time>
      </trkpt>
      <trkpt lat="43.69238" lon="4.27717">
        <ele>40.059</ele>
        <time>2023-04-13T12:07:49Z</time>
      </trkpt>
      <trkpt lat="43.69251" lon="4.27401">
        <ele>28.915</ele>
        <time>2023-04-13T12:11:25Z</time>
      </trkpt>
      <trkpt lat="43.69359" lon="4.27061">
        <ele>17.865</ele>
        <time>2023-04-13T12:15:17Z</time>
      </trkpt>
      <trkpt lat="43.69377" lon="4.27037">
        <ele>18.811</ele>
        <time>2023-04-13T12:15:36Z</time>
      </trkpt>
      <trkpt lat="43.69406" lon="4.27032">
        <ele>18.409</ele>
        <time>2023-04-13T12:16:00Z</time>
      </trkpt>
      <trkpt lat="43.69439" lon="4.27051">
        <ele>20.972</ele>
        <time>2023-04-13T12:32:30Z</time>
      </trkpt>
      <trkpt lat="43.69424" lon="4.27031">
        <ele>21.454</ele>
        <time>2023-04-13T12:44:17Z</time>
      </trkpt>
      <trkpt lat="43.69439" lon="4.27038">
        <ele>20.532</ele>
        <time>2023-04-13T12:44:57Z</time>
      </trkpt>
      <trkpt lat="43.6942" lon="4.27035">
        <ele>23.275</ele>
        <time>2023-04-13T12:46:41Z</time>
      </trkpt>
      <trkpt lat="43.69425" lon="4.27046">
        <ele>20.09</ele>
        <time>2023-04-13T12:46:50Z</time>
      </trkpt>
      <trkpt lat="43.69494" lon="4.27079">
        <ele>16.818</ele>
        <time>2023-04-13T12:48:01Z</time>
      </trkpt>
      <trkpt lat="43.69592" lon="4.2709">
        <ele>15.723</ele>
        <time>2023-04-13T12:49:24Z</time>
      </trkpt>
      <trkpt lat="43.69681" lon="4.2691">
        <ele>13.919</ele>
        <time>2023-04-13T12:51:32Z</time>
      </trkpt>
      <trkpt lat="43.69795" lon="4.26738">
        <ele>17.849</ele>
        <time>2023-04-13T12:53:47Z</time>
      </trkpt>
      <trkpt lat="43.6996" lon="4.26328">
        <ele>16.476</ele>
        <time>2023-04-13T12:58:14Z</time>
      </trkpt>
      <trkpt lat="43.70014" lon="4.26134">
        <ele>15.79</ele>
        <time>2023-04-13T13:00:14Z</time>
      </trkpt>
      <trkpt lat="43.70088" lon="4.2606">
        <ele>14.619</ele>
        <time>2023-04-13T13:01:25Z</time>
      </trkpt>
      <trkpt lat="43.70236" lon="4.25824">
        <ele>21.609</ele>
        <time>2023-04-13T13:04:15Z</time>
      </trkpt>
      <trkpt lat="43.70356" lon="4.2568">
        <ele>22.448</ele>
        <time>2023-04-13T13:06:15Z</time>
      </trkpt>
      <trkpt lat="43.7043" lon="4.25622">
        <ele>12.17</ele>
        <time>2023-04-13T13:07:26Z</time>
      </trkpt>
      <trkpt lat="43.70516" lon="4.25614">
        <ele>14.698</ele>
        <time>2023-04-13T13:08:25Z</time>
      </trkpt>
      <trkpt lat="43.70561" lon="4.25578">
        <ele>20.931</ele>
        <time>2023-04-13T13:09:04Z</time>
      </trkpt>
      <trkpt lat="43.70578" lon="4.2555">
        <ele>13.316</ele>
        <time>2023-04-13T13:09:38Z</time>
      </trkpt>
      <trkpt lat="43.70542" lon="4.25427">
        <ele>16.374</ele>
        <time>2023-04-13T13:10:55Z</time>
      </trkpt>
      <trkpt lat="43.70573" lon="4.25318">
        <ele>10.499</ele>
        <time>2023-04-13T13:13:12Z</time>
      </trkpt>
      <trkpt lat="43.7059" lon="4.25294">
        <ele>10.775</ele>
        <time>2023-04-13T13:13:32Z</time>
      </trkpt>
      <trkpt lat="43.70646" lon="4.25276">
        <ele>6.145</ele>
        <time>2023-04-13T13:14:12Z</time>
      </trkpt>
      <trkpt lat="43.707" lon="4.25231">
        <ele>6.967</ele>
        <time>2023-04-13T13:15:02Z</time>
      </trkpt>
      <trkpt lat="43.7076" lon="4.25218">
        <ele>10.581</ele>
        <time>2023-04-13T13:15:49Z</time>
      </trkpt>
      <trkpt lat="43.70748" lon="4.25139">
        <ele>11.719</ele>
        <time>2023-04-13T13:16:41Z</time>
      </trkpt>
      <trkpt lat="43.70825" lon="4.2503">
        <ele>10.109</ele>
        <time>2023-04-13T13:18:50Z</time>
      </trkpt>
      <trkpt lat="43.70912" lon="4.25082">
        <ele>9.627</ele>
        <time>2023-04-13T13:21:14Z</time>
      </trkpt>
      <trkpt lat="43.71086" lon="4.25149">
        <ele>11.019</ele>
        <time>2023-04-13T13:23:30Z</time>
      </trkpt>
      <trkpt lat="43.71122" lon="4.2515">
        <ele>11.137</ele>
        <time>2023-04-13T13:23:57Z</time>
      </trkpt>
      <trkpt lat="43.71392" lon="4.25078">
        <ele>15.83</ele>
        <time>2023-04-13T13:27:33Z</time>
      </trkpt>
      <trkpt lat="43.71374" lon="4.25021">
        <ele>16.995</ele>
        <time>2023-04-13T13:28:08Z</time>
      </trkpt>
      <trkpt lat="43.71376" lon="4.24954">
        <ele>12.893</ele>
        <time>2023-04-13T13:28:40Z</time>
      </trkpt>
      <trkpt lat="43.71467" lon="4.24537">
        <ele>7.218</ele>
        <time>2023-04-13T13:33:13Z</time>
      </trkpt>
      <trkpt lat="43.7157" lon="4.24186">
        <ele>5.934</ele>
        <time>2023-04-13T13:36:44Z</time>
      </trkpt>
      <trkpt lat="43.71691" lon="4.23945">
        <ele>6.534</ele>
        <time>2023-04-13T13:39:34Z</time>
      </trkpt>
      <trkpt lat="43.71588" lon="4.23682">
        <ele>3.624</ele>
        <time>2023-04-13T13:42:14Z</time>
      </trkpt>
      <trkpt lat="43.7158" lon="4.23632">
        <ele>6.004</ele>
        <time>2023-04-13T13:42:39Z</time>
      </trkpt>
      <trkpt lat="43.71643" lon="4.23642">
        <ele>10.614</ele>
        <time>2023-04-13T13:43:21Z</time>
      </trkpt>
      <trkpt lat="43.71752" lon="4.23583">
        <ele>3.409</ele>
        <time>2023-04-13T13:44:53Z</time>
      </trkpt>
      <trkpt lat="43.71738" lon="4.23736">
        <ele>10.843</ele>
        <time>2023-04-13T13:46:19Z</time>
      </trkpt>
      <trkpt lat="43.71747" lon="4.23754">
        <ele>11.445</ele>
        <time>2023-04-13T13:46:36Z</time>
      </trkpt>
      <trkpt lat="43.71838" lon="4.23619">
        <ele>14.553</ele>
        <time>2023-04-13T13:48:12Z</time>
      </trkpt>
      <trkpt lat="43.7188" lon="4.23463">
        <ele>11.486</ele>
        <time>2023-04-13T13:49:44Z</time>
      </trkpt>
      <trkpt lat="43.7192" lon="4.23456">
        <ele>5.381</ele>
        <time>2023-04-13T13:50:31Z</time>
      </trkpt>
      <trkpt lat="43.71938" lon="4.23395">
        <ele>9.029</ele>
        <time>2023-04-13T13:51:31Z</time>
      </trkpt>
      <trkpt lat="43.72103" lon="4.23212">
        <ele>10.654</ele>
        <time>2023-04-13T13:54:35Z</time>
      </trkpt>
      <trkpt lat="43.72107" lon="4.22916">
        <ele>10.68</ele>
        <time>2023-04-13T13:57:22Z</time>
      </trkpt>
      <trkpt lat="43.72171" lon="4.229">
        <ele>9.18</ele>
        <time>2023-04-13T13:58:14Z</time>
      </trkpt>
      <trkpt lat="43.72222" lon="4.22867">
        <ele>12.548</ele>
        <time>2023-04-13T13:58:53Z</time>
      </trkpt>
      <trkpt lat="43.72339" lon="4.22751">
        <ele>13.361</ele>
        <time>2023-04-13T14:01:21Z</time>
      </trkpt>
      <trkpt lat="43.72434" lon="4.22617">
        <ele>13.617</ele>
        <time>2023-04-13T14:03:54Z</time>
      </trkpt>
      <trkpt lat="43.72451" lon="4.22551">
        <ele>15.709</ele>
        <time>2023-04-13T14:04:36Z</time>
      </trkpt>
      <trkpt lat="43.72421" lon="4.2239">
        <ele>14.795</ele>
        <time>2023-04-13T14:06:13Z</time>
      </trkpt>
      <trkpt lat="43.72645" lon="4.22279">
        <ele>10.217</ele>
        <time>2023-04-13T14:09:09Z</time>
      </trkpt>
      <trkpt lat="43.72752" lon="4.22146">
        <ele>14.365</ele>
        <time>2023-04-13T14:10:53Z</time>
      </trkpt>
      <trkpt lat="43.72787" lon="4.22129">
        <ele>12.198</ele>
        <time>2023-04-13T14:11:29Z</time>
      </trkpt>
      <trkpt lat="43.72794" lon="4.22093">
        <ele>11.383</ele>
        <time>2023-04-13T14:11:53Z</time>
      </trkpt>
      <trkpt lat="43.7293" lon="4.22027">
        <ele>13.771</ele>
        <time>2023-04-13T14:14:00Z</time>
      </trkpt>
      <trkpt lat="43.72902" lon="4.21851">
        <ele>12.466</ele>
        <time>2023-04-13T14:15:45Z</time>
      </trkpt>
      <trkpt lat="43.728" lon="4.21552">
        <ele>9.262</ele>
        <time>2023-04-13T14:18:41Z</time>
      </trkpt>
      <trkpt lat="43.72789" lon="4.21295">
        <ele>15.682</ele>
        <time>2023-04-13T14:21:05Z</time>
      </trkpt>
      <trkpt lat="43.72886" lon="4.20977">
        <ele>18.019</ele>
        <time>2023-04-13T14:24:07Z</time>
      </trkpt>
      <trkpt lat="43.72919" lon="4.20817">
        <ele>15.809</ele>
        <time>2023-04-13T14:25:37Z</time>
      </trkpt>
      <trkpt lat="43.72914" lon="4.207">
        <ele>18.019</ele>
        <time>2023-04-13T14:26:40Z</time>
      </trkpt>
      <trkpt lat="43.72951" lon="4.20613">
        <ele>15.709</ele>
        <time>2023-04-13T14:27:35Z</time>
      </trkpt>
      <trkpt lat="43.72839" lon="4.20201">
        <ele>14.012</ele>
        <time>2023-04-13T14:52:00Z</time>
      </trkpt>
      <trkpt lat="43.72801" lon="4.19896">
        <ele>15.354</ele>
        <time>2023-04-13T14:55:09Z</time>
      </trkpt>
      <trkpt lat="43.72645" lon="4.19343">
        <ele>20.792</ele>
        <time>2023-04-13T15:00:25Z</time>
      </trkpt>
      <trkpt lat="43.72636" lon="4.19335">
        <ele>20.855</ele>
        <time>2023-04-13T15:00:33Z</time>
      </trkpt>
      <trkpt lat="43.72556" lon="4.19385">
        <ele>26.69</ele>
        <time>2023-04-13T15:01:39Z</time>
      </trkpt>
      <trkpt lat="43.7243" lon="4.1943">
        <ele>22.878</ele>
        <time>2023-04-13T15:03:14Z</time>
      </trkpt>
      <trkpt lat="43.72152" lon="4.19585">
        <ele>27.263</ele>
        <time>2023-04-13T15:07:02Z</time>
      </trkpt>
      <trkpt lat="43.72145" lon="4.19566">
        <ele>26.459</ele>
        <time>2023-04-13T15:07:13Z</time>
      </trkpt>
      <trkpt lat="43.72214" lon="4.19515">
        <ele>16.759</ele>
        <time>2023-04-13T15:08:35Z</time>
      </trkpt>
      <trkpt lat="43.72235" lon="4.19209">
        <ele>16.937</ele>
        <time>2023-04-13T15:11:42Z</time>
      </trkpt>
      <trkpt lat="43.72206" lon="4.18819">
        <ele>17.549</ele>
        <time>2023-04-13T15:15:36Z</time>
      </trkpt>
      <trkpt lat="43.72178" lon="4.18758">
        <ele>17.613</ele>
        <time>2023-04-13T15:16:17Z</time>
      </trkpt>
      <trkpt lat="43.72205" lon="4.18668">
        <ele>16.809</ele>
        <time>2023-04-13T15:17:13Z</time>
      </trkpt>
      <trkpt lat="43.722" lon="4.18585">
        <ele>13.324</ele>
        <time>2023-04-13T15:18:00Z</time>
      </trkpt>
      <trkpt lat="43.72141" lon="4.18373">
        <ele>23.326</ele>
        <time>2023-04-13T15:19:55Z</time>
      </trkpt>
      <trkpt lat="43.72111" lon="4.18187">
        <ele>18.644</ele>
        <time>2023-04-13T15:21:46Z</time>
      </trkpt>
      <trkpt lat="43.7191" lon="4.17787">
        <ele>19.877</ele>
        <time>2023-04-13T15:26:48Z</time>
      </trkpt>
      <trkpt lat="43.71935" lon="4.17748">
        <ele>21.392</ele>
        <time>2023-04-13T15:27:16Z</time>
      </trkpt>
      <trkpt lat="43.71916" lon="4.17656">
        <ele>24.02</ele>
        <time>2023-04-13T15:28:18Z</time>
      </trkpt>
      <trkpt lat="43.71943" lon="4.17653">
        <ele>23.745</ele>
        <time>2023-04-13T15:28:48Z</time>
      </trkpt>
      <trkpt lat="43.7208" lon="4.17532">
        <ele>30.091</ele>
        <time>2023-04-13T15:31:01Z</time>
      </trkpt>
      <trkpt lat="43.72164" lon="4.17479">
        <ele>39.811</ele>
        <time>2023-04-13T15:32:20Z</time>
      </trkpt>
    </trkseg>
  </trk>
</gpx>